ADDS METAR Data INFO
IDs: Format: Raw Decoded Include TAF

Data at: 0028 UTC 23 Feb 2018

KT35 230015Z AUTO 35007KT 4SM -RA OVC004 05/05 A3022 RMK AO2 P0001 T00500047
KT35 222355Z AUTO 35006KT 2 1/2SM UP OVC004 05/05 A3022 RMK AO2 T00500047 10052 20042
KT35 222335Z AUTO 34007KT 3SM BR OVC004 05/05 A3023 RMK AO2 LTG DSNT E T00510049
KT35 222315Z AUTO 36005KT 2 1/2SM BR OVC004 05/05 A3021 RMK AO2 T00510048
KT35 222255Z AUTO 34006KT 2SM BR OVC004 05/05 A3022 RMK AO2 T00500047
KT35 222235Z AUTO 35007KT 1 3/4SM BR OVC004 05/05 A3022 RMK AO2 T00500046
KT35 222215Z AUTO 34007KT 2SM BR OVC004 05/05 A3022 RMK AO2 T00500047
KT35 222155Z AUTO 33007KT 4SM BR OVC004 05/05 A3022 RMK AO2 T00510047
KT35 222135Z AUTO 34007KT 3SM BR OVC004 05/05 A3022 RMK AO2 T00520049
KT35 222115Z AUTO 33008KT 2SM BR OVC004 05/05 A3022 RMK AO2 T00500046
KT35 222055Z AUTO 32007KT 2SM BR OVC004 05/05 A3022 RMK AO2 T00510048
KT35 222035Z AUTO 33007KT 2SM BR OVC004 05/05 A3022 RMK AO2 T00500046
KT35 222015Z AUTO 33006KT 1 1/2SM BR OVC004 05/04 A3022 RMK AO2 T00480044
KT35 221955Z AUTO 33006KT 2 1/2SM BR OVC004 05/04 A3023 RMK AO2 T00470043
KT35 221935Z AUTO 32007KT 3SM BR OVC004 05/04 A3024 RMK AO2 T00470044
KT35 221915Z AUTO 33005KT 1 1/2SM -RA OVC004 05/04 A3024 RMK AO2 T00450041
KT35 221855Z AUTO 33005KT 1 1/2SM BR OVC004 04/04 A3025 RMK AO2 T00440040
KT35 221835Z AUTO 32006KT 1 1/4SM BR OVC004 04/04 A3026 RMK AO2 T00440041
KT35 221815Z AUTO 33007KT 1 3/4SM BR OVC004 05/04 A3027 RMK AO2 T00450041
KT35 221755Z AUTO 34006KT 2SM BR OVC004 04/04 A3027 RMK AO2 60019 T00430039 10045 20027
KT35 221735Z AUTO 35007KT 3SM BR OVC004 04/04 A3027 RMK AO2 T00420038
KT35 221715Z AUTO 33007KT 2SM BR OVC004 04/04 A3028 RMK AO2 LTG DSNT NE T00400036
KT35 221655Z AUTO 33008KT 4SM BR OVC004 04/04 A3028 RMK AO2 LTG DSNT N P0001 T00410037
KT35 221635Z AUTO 35008KT 4SM BR OVC004 04/04 A3028 RMK AO2 P0001 T00400036
KT35 221615Z AUTO 34007KT 7SM OVC004 04/03 A3028 RMK AO2 LTG DSNT NE P0001 T00370034
KT35 221555Z AUTO 35006KT 2 1/2SM RA OVC004 03/03 A3028 RMK AO2 LTG DSNT E P0001 T00320030
KT35 221535Z AUTO 33007KT 1 3/4SM BR OVC004 03/03 A3028 RMK AO2 LTG DSNT E P0001 T00310029
KT35 221515Z AUTO 34007KT 1 1/2SM RA OVC004 03/03 A3028 RMK AO2 LTG DSNT SE T00300026
KT35 221455Z AUTO 33008KT 1 1/4SM DZ OVC004 03/03 A3028 RMK AO2 LTG DSNT E P0001 60017 T00300027
KT35 221435Z AUTO 34007KT 1 3/4SM BR OVC004 03/03 A3027 RMK AO2 LTG DSNT NW P0001 T00300026
KT35 221415Z AUTO 34006KT 2 1/2SM BR OVC004 03/03 A3027 RMK AO2 LTG DSNT NE P0001 T00300028
KT35 221355Z AUTO 34005KT 4SM -VCTSRA OVC002 03/03 A3027 RMK AO2 LTG DSNT N P0016 T00300026
KT35 221335Z AUTO 33006KT 2SM -VCTSRA OVC002 03/03 A3027 RMK AO2 LTG DSNT NW THRU SE P0016 T00280026
KT35 221315Z AUTO 34006KT 1SM +VCTSRA OVC002 03/03 A3027 RMK AO2 LTG DSNT ALQS P0004 T00280026
KT35 221255Z AUTO 01006KT 2SM BR OVC002 03/03 A3025 RMK AO2 LTG DSNT N AND SW T00270025
KT35 221235Z AUTO 35008KT 2SM BR OVC002 03/03 A3025 RMK AO2 T00270025
KT35 221215Z AUTO 36010KT 3SM BR OVC002 03/03 A3025 RMK AO2 T00280026
KT35 221155Z AUTO 36011KT 2 1/2SM BR OVC002 03/03 A3025 RMK AO2 LTG DSNT E AND NW 70041 T00270025 10037 20025
KT35 221135Z AUTO 36008KT 2SM BR OVC002 03/03 A3025 RMK AO2 T00270025
KT35 221115Z AUTO 35008G14KT 2 1/2SM BR OVC002 03/03 A3025 RMK AO2 T00280025
KT35 221055Z AUTO 35007KT 2SM BR OVC002 03/03 A3025 RMK AO2 T00270025
KT35 221035Z AUTO 35009KT 2SM BR OVC002 03/02 A3024 RMK AO2 T00250023
KT35 221015Z AUTO 36009KT 5SM BR OVC002 03/03 A3026 RMK AO2 T00260025
KT35 220955Z AUTO 36010KT 2 1/2SM BR OVC002 03/02 A3025 RMK AO2 LTG DSNT E T00250024
KT35 220935Z AUTO 36010KT 2 1/2SM BR OVC002 03/03 A3024 RMK AO2 T00270025
KT35 220915Z AUTO 35011G14KT 2 1/2SM BR OVC002 03/02 A3026 RMK AO2 T00250023
KT35 220855Z AUTO 36011G15KT 2SM BR OVC002 03/03 A3025 RMK AO2 T00270025
KT35 220835Z AUTO 36011KT 3SM BR OVC002 03/03 A3025 RMK AO2 T00280026
KT35 220815Z AUTO 35010KT 2 1/2SM BR OVC002 03/03 A3027 RMK AO2 T00310030
KT35 220755Z AUTO 36008KT 2SM BR OVC002 03/03 A3028 RMK AO2 T00310030
KT35 220735Z AUTO 35011KT 2SM BR OVC002 03/03 A3028 RMK AO2 T00320030
KT35 220715Z AUTO 36008KT 2 1/2SM BR OVC002 03/03 A3028 RMK AO2 T00330030
KT35 220655Z AUTO 35011G15KT 3SM BR OVC002 03/03 A3027 RMK AO2 LTG DSNT E T00330030
KT35 220635Z AUTO 36010KT 2SM BR OVC002 04/03 A3028 RMK AO2 LTG DSNT E T00350032
KT35 220615Z AUTO 35009KT 2 1/2SM BR OVC002 04/03 A3027 RMK AO2 T00360033
KT35 220555Z AUTO 35010KT 3SM BR OVC004 04/04 A3027 RMK AO2 LTG DSNT E 60021 T00380035 10060 20036 401010032
KT35 220535Z AUTO 35011KT 5SM BR OVC004 04/04 A3027 RMK AO2 LTG DSNT E T00370035
KT35 220515Z AUTO 35011KT 5SM BR OVC004 04/04 A3028 RMK AO2 LTG DSNT SE T00370035
KT35 220455Z AUTO 34011KT 5SM BR OVC004 04/03 A3028 RMK AO2 T00360032
KT35 220435Z AUTO 34013G17KT 7SM OVC004 04/03 A3028 RMK AO2 T00380034
KT35 220415Z AUTO 35012G17KT 5SM BR OVC004 04/04 A3029 RMK AO2 T00400036
KT35 220355Z AUTO 34011KT 5SM BR OVC004 04/04 A3029 RMK AO2 LTG DSNT E T00410037
KT35 220035Z AUTO 01007KT 10SM BKN009 OVC017 04/03 A3021 RMK AO2 LTG DSNT ALQS T00400033
KT35 220015Z AUTO 33008KT 10SM TS OVC009 04/03 A3023 RMK AO2 LTG DSNT ALQS T00400030
KT35 212355Z AUTO 35007KT 10SM TS OVC009 04/03 A3021 RMK AO2 LTG DSNT ALQS 60007 T00360027 10055 20032
KT35 212335Z AUTO 01010G14KT 10SM -VCTSRA OVC009 04/03 A3020 RMK AO2 LTG DSNT ALQS T00350025
KT35 212315Z AUTO 36010G19KT 10SM VCTS OVC009 04/03 A3020 RMK AO2 LTG DSNT ALQS T00350026
KT35 212255Z AUTO 36012G17KT 10SM -TSRA OVC009 04/03 A3018 RMK AO2 LTG DSNT ALQS P0002 T00350027
KT35 212235Z AUTO 01011G18KT 10SM VCTS OVC007 04/03 A3019 RMK AO2 LTG DSNT ALQS P0002 T00350027
KT35 212215Z AUTO 36016G21KT 5SM -TSRA OVC007 03/03 A3019 RMK AO2 LTG DSNT ALQS P0002 T00330026
KT35 212155Z AUTO 01013G18KT 10SM OVC009 03/03 A3018 RMK AO2 LTG DSNT ALQS T00330025
KT35 212135Z AUTO 35015G23KT 10SM TS OVC007 03/03 A3021 RMK AO2 LTG DSNT ALQS T00330025
KT35 212115Z AUTO 35019G23KT 7SM TS OVC007 04/03 A3019 RMK AO2 LTG DSNT SW THRU N T00380032
KT35 212055Z AUTO 36014G23KT 4SM BR OVC007 04/03 A3019 RMK AO2 LTG DSNT W THRU E P0001 60005 T00410034
KT35 212035Z AUTO 35020G23KT 4SM -DZ OVC007 04/04 A3019 RMK AO2 LTG DSNT N AND W P0001 T00410035
KT35 212015Z AUTO 35018G26KT 4SM DZ OVC007 04/03 A3020 RMK AO2 LTG DSNT W THRU E T00400034
KT35 211955Z AUTO 33016G21KT 7SM -DZ OVC007 05/04 A3021 RMK AO2 LTG DSNT E W AND NW P0002 T00450038
KT35 211935Z AUTO 35018G25KT 10SM VCTS OVC007 05/04 A3019 RMK AO2 LTG DSNT ALQS P0002 T00450038
KT35 211915Z AUTO 35015G23KT 4SM -RA OVC007 05/04 A3018 RMK AO2 LTG DSNT E SE AND NW P0002 T00450038
KT35 211855Z AUTO 34016G21KT 7SM OVC007 04/04 A3020 RMK AO2 LTG DSNT NW P0002 T00440036
KT35 211835Z AUTO 34015G18KT 7SM -RA OVC007 05/04 A3020 RMK AO2 LTG DSNT SE P0001 T00470041
KT35 211815Z AUTO 34013G19KT 5SM -DZ OVC005 05/05 A3020 RMK AO2 LTG DSNT SE AND NW T00520046
KT35 211755Z AUTO 35014KT 7SM -RA OVC007 05/05 A3021 RMK AO2 LTG DSNT N AND NW P0010 60013 T00510045 10058 20045
KT35 211735Z AUTO 34014KT 1 1/4SM -RA OVC007 05/05 A3021 RMK AO2 VIS 1/2V5 LTG DSNT NW THRU E P0009 T00540047
KT35 211715Z AUTO 35014G17KT 5SM +RA OVC007 05/05 A3021 RMK AO2 LTG DSNT E AND NW P0002 T00520045
KT35 211655Z AUTO 01012KT 10SM -RA OVC007 06/05 A3020 RMK AO2 LTG DSNT NW T00560047
KT35 211635Z AUTO 01012KT 10SM OVC007 06/05 A3019 RMK AO2 LTG DSNT E AND SE T00550045
KT35 211615Z AUTO 36014G17KT 10SM OVC007 06/05 A3017 RMK AO2 LTG DSNT ALQS T00550046
KT35 211555Z AUTO 02013KT 10SM VCTS OVC007 05/05 A3019 RMK AO2 LTG DSNT ALQS P0001 T00540045
KT35 211535Z AUTO 36011G18KT 10SM OVC007 05/05 A3018 RMK AO2 LTG DSNT E SE AND NW P0001 T00520045
KT35 211515Z AUTO 01011G16KT 10SM -RA OVC005 06/05 A3019 RMK AO2 LTG DSNT E AND SE T00550046
KT35 211455Z AUTO 01010KT 10SM VCTS OVC005 05/05 A3019 RMK AO2 LTG DSNT E AND SE 60002 T00520045
KT35 211435Z AUTO 02012KT 10SM VCTS OVC007 05/04 A3017 RMK AO2 LTG DSNT SE T00500043
KT35 211415Z AUTO 02011KT 10SM OVC007 05/04 A3017 RMK AO2 LTG DSNT E THRU S T00480041
KT35 211355Z AUTO 01014G18KT 7SM -RA OVC007 05/04 A3019 RMK AO2 LTG DSNT S P0001 T00450038
KT35 211335Z AUTO 01017KT 10SM OVC007 05/04 A3018 RMK AO2 LTG DSNT SE T00490042
KT35 211315Z AUTO 01013G18KT 10SM OVC007 05/04 A3019 RMK AO2 LTG DSNT NW T00460040
KT35 211255Z AUTO 36012G19KT 10SM OVC007 05/04 A3019 RMK AO2 LTG DSNT SE P0001 T00500042